Connersville, Indiana
Current Conditions -  °F | °C
As of 3:55 PM on Tuesday 27 Jan 2015 (Local Time) from KI67 Reporting Station
Clear Clear  
Wind Chill: 23°   Ceiling: Unl
Heat Index: 30°   Visibility: 10mi
Dew Point: 16°   Wind: 8mph
Humidity: 55%   Direction: 10°N
Pressure: 30.13"   Gusts: NA
Location:  39.64°N, 85.14°W
Report Text: KI67 272055Z AUTO 01007KT 10SM CLR M01/M09 A3013 RMK AO1
Loading
Personal Weather Stations






























Interactive Weather Map New forecast layout! Learn more

10-Day Weather Forecast

Advertisements
Track Severe Weather on mobile